createdAt,value
2018-04-13T07:19:01.809Z,19.86
2018-04-13T07:20:01.832Z,20.18
2018-04-13T07:21:01.879Z,20.43
2018-04-13T07:22:01.929Z,20.98
2018-04-13T07:23:02.004Z,21.35
2018-04-13T07:24:02.062Z,21.16
2018-04-13T07:25:02.102Z,21.29
2018-04-13T07:26:02.135Z,21.46
2018-04-13T07:27:02.190Z,21.81
2018-04-13T07:28:02.231Z,22.04
2018-04-13T07:29:02.314Z,21.98
2018-04-13T07:30:02.334Z,21.85
2018-04-13T07:31:02.389Z,22.10
2018-04-13T07:32:02.435Z,22.09
2018-04-13T07:33:02.488Z,22.25
2018-04-13T07:34:02.576Z,22.27
2018-04-13T07:35:02.589Z,21.95
2018-04-13T07:36:02.645Z,21.75
2018-04-13T07:37:02.689Z,21.75
2018-04-13T07:38:02.744Z,21.64
2018-04-13T07:39:02.818Z,21.75
2018-04-13T07:40:02.873Z,21.85
2018-04-13T07:41:02.903Z,21.83
2018-04-13T07:42:02.951Z,21.32
2018-04-13T07:43:03.002Z,21.63
2018-04-13T07:44:03.052Z,21.83
2018-04-13T07:45:03.198Z,21.56
2018-04-13T07:46:03.157Z,21.69
2018-04-13T07:47:03.206Z,21.59
2018-04-13T07:48:03.259Z,21.60
2018-04-13T07:49:03.309Z,21.78
2018-04-13T07:50:03.387Z,21.99
2018-04-13T07:51:03.415Z,21.67
2018-04-13T07:52:03.467Z,21.20
2018-04-13T07:53:03.519Z,20.89
2018-04-13T07:54:03.575Z,20.81
2018-04-13T07:55:03.654Z,20.99
2018-04-13T07:56:03.676Z,21.13
2018-04-13T07:57:03.727Z,21.42
2018-04-13T07:58:03.793Z,21.30
2018-04-13T07:59:03.835Z,21.42
2018-04-13T08:00:03.907Z,21.39
2018-04-13T08:01:03.937Z,21.13
2018-04-13T08:02:03.986Z,21.34
2018-04-13T08:03:04.040Z,21.36
2018-04-13T08:04:04.090Z,21.48
2018-04-13T08:05:04.180Z,21.71
2018-04-13T08:06:04.194Z,21.74
2018-04-13T08:07:04.245Z,21.94
2018-04-13T08:08:04.322Z,21.85
2018-04-13T08:09:04.359Z,21.85
2018-04-13T08:10:04.410Z,21.82
2018-04-13T08:11:04.479Z,21.51
2018-04-13T08:12:04.512Z,20.86
2018-04-13T08:13:04.562Z,20.56
2018-04-13T08:14:04.614Z,20.15
2018-04-13T08:15:04.664Z,19.70
2018-04-13T08:16:04.742Z,19.97
2018-04-13T08:17:04.771Z,20.06
2018-04-13T08:18:04.860Z,19.87
2018-04-13T08:19:04.877Z,19.42
2018-04-13T08:20:04.925Z,19.15
2018-04-13T08:21:05.005Z,19.02
2018-04-13T08:22:05.029Z,19.13
2018-04-13T08:23:05.081Z,19.63
2018-04-13T08:24:05.134Z,19.83
2018-04-13T08:25:05.210Z,19.72
2018-04-13T08:26:05.239Z,19.33
2018-04-13T08:27:05.315Z,19.18
2018-04-13T08:28:05.339Z,19.46
2018-04-13T08:29:05.393Z,19.39
2018-04-13T08:30:06.006Z,19.60
2018-04-13T08:31:05.496Z,19.54
2018-04-13T08:32:05.562Z,19.24
2018-04-13T08:33:05.601Z,18.70
2018-04-13T08:34:05.650Z,18.43
2018-04-13T08:35:05.725Z,18.03
2018-04-13T08:36:05.762Z,17.88
2018-04-13T08:37:05.806Z,17.85
2018-04-13T08:38:05.858Z,18.02
2018-04-13T08:39:05.908Z,18.09
2018-04-13T08:40:05.989Z,18.57
2018-04-13T08:41:06.014Z,18.90
2018-04-13T08:42:06.063Z,18.97
2018-04-13T08:43:06.117Z,19.23
2018-04-13T08:44:06.185Z,19.25
2018-04-13T08:45:06.251Z,19.15
2018-04-13T08:46:06.271Z,18.94
2018-04-13T08:47:06.320Z,19.02
2018-04-13T08:48:06.372Z,19.14
2018-04-13T08:49:06.568Z,19.14
2018-04-13T08:50:06.512Z,19.33
2018-04-13T08:51:06.525Z,19.33
2018-04-13T08:52:06.618Z,19.55
2018-04-13T08:53:06.633Z,19.50
2018-04-13T08:54:06.715Z,19.68
2018-04-13T08:55:06.770Z,19.53
2018-04-13T08:56:06.783Z,19.36
2018-04-13T08:57:06.835Z,19.38
2018-04-13T08:58:06.913Z,19.11
2018-04-13T08:59:06.937Z,18.90
2018-04-13T09:00:06.989Z,18.94
2018-04-13T09:01:07.040Z,19.28
2018-04-13T09:02:07.093Z,19.25
2018-04-13T09:03:07.170Z,19.11
2018-04-13T09:04:07.196Z,19.01
2018-04-13T09:05:07.256Z,19.13
2018-04-13T09:06:07.324Z,18.91
2018-04-13T09:07:07.351Z,18.84
2018-04-13T09:08:07.449Z,18.67
2018-04-13T09:09:07.466Z,18.46
2018-04-13T09:10:07.508Z,18.87
2018-04-13T09:11:07.559Z,19.33
2018-04-13T09:12:07.613Z,19.51
2018-04-13T09:13:07.696Z,19.61
2018-04-13T09:14:07.756Z,19.61
2018-04-13T09:15:07.767Z,19.78
2018-04-13T09:16:07.818Z,19.65
2018-04-13T09:17:07.870Z,19.43
2018-04-13T09:18:07.969Z,19.75
2018-04-13T09:19:07.980Z,19.79
2018-04-13T09:20:08.034Z,19.98
2018-04-13T09:21:08.079Z,20.24
2018-04-13T09:22:08.132Z,20.62
2018-04-13T09:23:08.211Z,20.66
2018-04-13T09:24:08.238Z,20.87
2018-04-13T09:25:08.287Z,20.99
2018-04-13T09:26:08.340Z,20.66
2018-04-13T09:27:08.392Z,20.47
2018-04-13T09:28:08.479Z,20.09
2018-04-13T09:29:08.537Z,19.80
2018-04-13T09:30:08.552Z,19.79
2018-04-13T09:31:08.603Z,19.86
2018-04-13T09:32:08.657Z,19.84
2018-04-13T09:33:08.709Z,19.84
2018-04-13T09:34:08.786Z,20.15
2018-04-13T09:35:08.813Z,20.51
2018-04-13T09:36:08.867Z,20.31
2018-04-13T09:37:08.924Z,20.38
2018-04-13T09:38:08.973Z,20.46
2018-04-13T09:39:09.052Z,20.35
2018-04-13T09:40:09.080Z,19.93
2018-04-13T09:41:09.131Z,20.08
2018-04-13T09:42:09.184Z,20.18
2018-04-13T09:43:09.235Z,20.05
2018-04-13T09:44:09.314Z,20.18
2018-04-13T09:45:09.350Z,20.05
2018-04-13T09:46:09.421Z,19.80
2018-04-13T09:47:09.469Z,19.79
2018-04-13T09:48:09.506Z,19.43
2018-04-13T09:49:09.553Z,19.18
2018-04-13T09:50:09.607Z,19.33
2018-04-13T09:51:09.682Z,19.43
2018-04-13T09:52:09.713Z,19.55
2018-04-13T09:53:09.771Z,19.46
2018-04-13T09:54:09.816Z,18.98
2018-04-13T09:55:09.876Z,18.65
2018-04-13T09:56:09.960Z,18.82
2018-04-13T09:57:09.980Z,18.82
2018-04-13T09:58:10.030Z,18.84
2018-04-13T09:59:10.083Z,19.06
2018-04-13T10:00:10.132Z,19.15
2018-04-13T10:01:10.213Z,19.25
2018-04-13T10:02:10.261Z,19.28
2018-04-13T10:03:10.292Z,19.46
2018-04-13T10:04:10.347Z,19.35
2018-04-13T10:05:10.395Z,19.33
2018-04-13T10:06:10.446Z,19.46
2018-04-13T10:07:10.523Z,19.43
2018-04-13T10:08:10.554Z,19.35
2018-04-13T10:09:10.606Z,19.11
2018-04-13T10:10:10.658Z,19.05
2018-04-13T10:11:10.709Z,18.73
2018-04-13T10:12:10.786Z,18.37
2018-04-13T10:13:10.844Z,18.02
2018-04-13T10:14:10.864Z,18.02
2018-04-13T10:15:10.918Z,18.04
2018-04-13T10:16:10.971Z,18.02
2018-04-13T10:17:11.021Z,17.95
2018-04-13T10:18:11.098Z,18.10
2018-04-13T10:19:11.124Z,18.19
2018-04-13T10:20:11.178Z,18.40
2018-04-13T10:21:11.233Z,18.62
2018-04-13T10:22:11.297Z,18.90
2018-04-13T10:23:11.355Z,19.32
2018-04-13T10:24:11.390Z,19.68
2018-04-13T10:25:11.435Z,19.84
2018-04-13T10:26:11.487Z,20.03
2018-04-13T10:27:11.541Z,20.18
2018-04-13T10:28:11.624Z,20.54
2018-04-13T10:29:11.668Z,20.65
2018-04-13T10:30:11.694Z,20.72
2018-04-13T10:31:11.751Z,20.42
2018-04-13T10:32:11.803Z,20.49
2018-04-13T10:33:11.853Z,20.33
2018-04-13T10:34:11.929Z,20.06
2018-04-13T10:35:11.958Z,20.05
2018-04-13T10:36:12.018Z,20.20
2018-04-13T10:37:12.062Z,20.16
2018-04-13T10:38:12.116Z,20.54
2018-04-13T10:39:12.200Z,20.47
2018-04-13T10:40:12.223Z,20.64
2018-04-13T10:41:12.273Z,20.42
2018-04-13T10:42:12.327Z,20.25
2018-04-13T10:43:12.380Z,20.41
2018-04-13T10:44:12.453Z,20.43
2018-04-13T10:45:12.507Z,20.33
2018-04-13T10:46:12.539Z,20.39
2018-04-13T10:47:12.593Z,20.34
2018-04-13T10:48:12.642Z,20.18
2018-04-13T10:49:12.699Z,20.09
2018-04-13T10:50:12.791Z,20.33
2018-04-13T10:51:12.805Z,20.38
2018-04-13T10:52:12.854Z,20.21
2018-04-13T10:53:12.907Z,20.20
2018-04-13T10:54:12.962Z,20.61
2018-04-13T10:55:13.052Z,20.83
2018-04-13T10:56:13.103Z,20.84
2018-04-13T10:57:13.132Z,20.71
2018-04-13T10:58:13.173Z,20.79
2018-04-13T10:59:13.228Z,21.01
2018-04-13T11:00:13.283Z,21.24
2018-04-13T11:01:13.359Z,21.26
2018-04-13T11:02:13.392Z,21.21
2018-04-13T11:03:13.440Z,21.13
2018-04-13T11:04:13.496Z,21.24
2018-04-13T11:05:13.548Z,21.39
2018-04-13T11:06:13.625Z,21.57
2018-04-13T11:07:13.655Z,21.74
2018-04-13T11:08:13.716Z,21.72
2018-04-13T11:09:13.767Z,21.51
2018-04-13T11:10:13.817Z,21.29
2018-04-13T11:11:13.892Z,20.83
2018-04-13T11:12:13.955Z,20.35
2018-04-13T11:13:13.974Z,20.34
2018-04-13T11:14:14.028Z,20.31
2018-04-13T11:15:14.084Z,20.09
2018-04-13T11:16:14.144Z,19.86
2018-04-13T11:17:14.227Z,19.91
2018-04-13T11:18:14.244Z,20.23
2018-04-13T11:19:14.297Z,20.87
2018-04-13T11:20:14.356Z,21.32
2018-04-13T11:21:14.404Z,21.61
2018-04-13T11:22:14.499Z,21.82
2018-04-13T11:23:14.511Z,21.83
2018-04-13T11:24:14.573Z,21.97
2018-04-13T11:25:14.618Z,22.28
2018-04-13T11:26:14.675Z,22.62
2018-04-13T11:27:14.755Z,22.82
2018-04-13T11:28:14.805Z,23.08
2018-04-13T11:29:14.833Z,22.90
2018-04-13T11:30:14.888Z,22.89
2018-04-13T11:31:14.944Z,22.82
2018-04-13T11:32:14.999Z,22.69
2018-04-13T11:33:15.087Z,22.43
2018-04-13T11:34:15.108Z,22.50
2018-04-13T11:35:15.169Z,22.52
2018-04-13T11:36:15.218Z,22.87
2018-04-13T11:37:15.276Z,22.83
2018-04-13T11:38:15.352Z,23.04
2018-04-13T11:39:15.385Z,23.01
2018-04-13T11:40:15.443Z,23.11
2018-04-13T11:41:15.498Z,23.12
2018-04-13T11:42:15.553Z,22.80
2018-04-13T11:43:15.642Z,22.12
2018-04-13T11:44:15.663Z,21.91
2018-04-13T11:45:15.717Z,21.30
2018-04-13T11:46:15.773Z,21.50
2018-04-13T11:47:15.829Z,21.74
2018-04-13T11:48:15.922Z,22.04
2018-04-13T11:49:15.940Z,22.13
2018-04-13T11:50:15.996Z,22.25
2018-04-13T11:51:16.054Z,22.43
2018-04-13T11:52:16.109Z,22.41
2018-04-13T11:53:16.184Z,22.64
2018-04-13T11:54:16.243Z,22.52
2018-04-13T11:55:16.311Z,22.50
2018-04-13T11:56:16.330Z,22.57
2018-04-13T11:57:16.387Z,22.64
2018-04-13T11:58:16.451Z,22.84
2018-04-13T11:59:16.534Z,22.89
2018-04-13T12:00:16.553Z,22.89
2018-04-13T12:01:16.612Z,22.62
2018-04-13T12:02:16.665Z,22.43
2018-04-13T12:03:16.727Z,22.53
2018-04-13T12:04:16.806Z,22.68
2018-04-13T12:05:16.857Z,22.60
2018-04-13T12:06:16.893Z,22.65
2018-04-13T12:07:16.947Z,22.59
2018-04-13T12:08:17.008Z,22.78
2018-04-13T12:09:17.059Z,23.02
2018-04-13T12:10:17.139Z,23.14
2018-04-13T12:11:17.173Z,23.23
2018-04-13T12:12:17.232Z,23.42
2018-04-13T12:13:17.286Z,23.26
2018-04-13T12:14:17.343Z,23.40
2018-04-13T12:15:17.426Z,22.99
2018-04-13T12:16:17.458Z,22.96
2018-04-13T12:17:17.521Z,23.08
2018-04-13T12:18:17.570Z,23.02
2018-04-13T12:19:17.637Z,23.11
2018-04-13T12:20:17.712Z,22.84
2018-04-13T12:21:17.744Z,22.82
2018-04-13T12:22:17.801Z,23.01
2018-04-13T12:23:17.861Z,23.09
2018-04-13T12:24:17.916Z,23.20
2018-04-13T12:25:18.001Z,23.31
2018-04-13T12:26:18.032Z,22.93
2018-04-13T12:27:18.117Z,22.89
2018-04-13T12:28:18.145Z,23.07
2018-04-13T12:29:18.203Z,23.22
2018-04-13T12:30:18.261Z,23.04
2018-04-13T12:31:18.356Z,22.92
2018-04-13T12:32:18.400Z,22.65
2018-04-13T12:33:18.430Z,22.62
2018-04-13T12:34:18.492Z,22.72
2018-04-13T12:35:18.547Z,22.69
2018-04-13T12:36:18.607Z,22.80
2018-04-13T12:37:18.688Z,22.60
2018-04-13T12:38:18.740Z,22.52
2018-04-13T12:39:18.778Z,22.41
2018-04-13T12:40:18.834Z,22.32
2018-04-13T12:41:18.897Z,22.29
2018-04-13T12:42:30.599Z,22.25
2018-04-13T12:43:19.010Z,22.53
2018-04-13T12:44:19.066Z,22.65
2018-04-13T12:45:19.124Z,22.75
2018-04-13T12:46:19.912Z,23.02
2018-04-13T12:47:19.270Z,23.02
2018-04-13T12:48:19.301Z,22.94
2018-04-13T12:49:19.358Z,23.12
2018-04-13T12:50:19.416Z,23.05
2018-04-13T12:51:19.483Z,23.09
2018-04-13T12:52:19.554Z,23.05
2018-04-13T12:53:19.592Z,22.90
2018-04-13T12:54:19.712Z,22.78
2018-04-13T12:55:19.797Z,22.68
2018-04-13T12:56:19.781Z,22.59
2018-04-13T12:57:19.820Z,22.31
2018-04-13T12:58:19.882Z,22.28
2018-04-13T12:59:19.937Z,22.34
2018-04-13T13:00:20.022Z,22.49
2018-04-13T13:01:20.059Z,22.62
2018-04-13T13:02:20.116Z,22.80
2018-04-13T13:03:20.170Z,23.02
2018-04-13T13:04:20.231Z,23.22
2018-04-13T13:05:20.321Z,23.32
2018-04-13T13:06:20.350Z,23.49
2018-04-13T13:07:20.407Z,23.83
2018-04-13T13:08:20.465Z,23.76
2018-04-13T13:09:20.528Z,23.29
2018-04-13T13:10:20.624Z,23.29
2018-04-13T13:11:20.647Z,23.29
2018-04-13T13:12:20.703Z,23.22
2018-04-13T13:13:20.762Z,22.78
2018-04-13T13:14:20.821Z,22.64
2018-04-13T13:15:20.919Z,22.72
2018-04-13T13:16:20.940Z,22.72
2018-04-13T13:17:21.002Z,22.69
2018-04-13T13:18:21.056Z,22.64
2018-04-13T13:19:21.119Z,22.35
2018-04-13T13:20:21.201Z,22.39
2018-04-13T13:21:21.260Z,22.52
2018-04-13T13:22:21.298Z,22.80
2018-04-13T13:23:21.355Z,22.89
2018-04-13T13:24:21.416Z,22.68
2018-04-13T13:25:21.474Z,22.77
2018-04-13T13:26:21.559Z,23.08
2018-04-13T13:27:21.593Z,23.23
2018-04-13T13:28:21.652Z,23.23
2018-04-13T13:29:21.717Z,23.26
2018-04-13T13:30:21.771Z,23.27
2018-04-13T13:31:21.854Z,22.90
2018-04-13T13:32:21.894Z,22.68
2018-04-13T13:33:21.949Z,22.65
2018-04-13T13:34:22.012Z,22.74
2018-04-13T13:35:22.073Z,22.78
2018-04-13T13:36:22.158Z,22.74
2018-04-13T13:37:22.192Z,22.65
2018-04-13T13:38:22.252Z,22.78
2018-04-13T13:39:22.309Z,22.49
2018-04-13T13:40:22.370Z,22.54
2018-04-13T13:41:22.460Z,22.80
2018-04-13T13:42:22.495Z,23.07
2018-04-13T13:43:22.549Z,23.27
2018-04-13T13:44:22.614Z,23.45
2018-04-13T13:45:22.680Z,23.26
2018-04-13T13:46:22.783Z,22.86
2018-04-13T13:47:22.794Z,22.57
2018-04-13T13:48:22.849Z,22.57
2018-04-13T13:49:22.912Z,22.53
2018-04-13T13:50:22.978Z,22.50
2018-04-13T13:51:23.079Z,22.68
2018-04-13T13:52:23.093Z,22.65
2018-04-13T13:53:23.155Z,22.69
2018-04-13T13:54:23.211Z,22.65
2018-04-13T13:55:23.276Z,22.46
2018-04-13T13:56:23.357Z,22.35
2018-04-13T13:57:23.397Z,22.31
2018-04-13T13:58:23.464Z,22.31
2018-04-13T13:59:23.546Z,22.44
2018-04-13T14:00:23.577Z,22.56
2018-04-13T14:01:23.636Z,22.34
2018-04-13T14:02:23.749Z,22.27
2018-04-13T14:03:23.757Z,22.52
2018-04-13T14:04:23.826Z,22.49
2018-04-13T14:05:23.881Z,22.43
2018-04-13T14:06:23.938Z,22.68
2018-04-13T14:07:24.024Z,22.97
2018-04-13T14:08:24.060Z,22.92
2018-04-13T14:09:24.165Z,23.29
2018-04-13T14:10:24.186Z,23.46
2018-04-13T14:11:24.245Z,23.55
2018-04-13T14:12:24.303Z,23.72
2018-04-13T14:13:24.362Z,24.00
2018-04-13T14:14:24.466Z,24.04
2018-04-13T14:15:24.485Z,24.12
2018-04-13T14:16:24.548Z,24.12
2018-04-13T14:17:24.609Z,24.22
2018-04-13T14:18:24.697Z,24.27
2018-04-13T14:19:24.731Z,24.27
2018-04-13T14:20:24.804Z,24.12
2018-04-13T14:21:24.858Z,24.22
2018-04-13T14:22:24.917Z,24.04
2018-04-13T14:23:25.003Z,24.08
2018-04-13T14:24:25.041Z,24.04
2018-04-13T14:25:25.128Z,24.07
2018-04-13T14:26:25.165Z,23.90
2018-04-13T14:27:25.233Z,24.12
2018-04-13T14:28:25.295Z,24.45
2018-04-13T14:29:25.364Z,24.76
2018-04-13T14:30:25.490Z,24.68
2018-04-13T14:31:25.478Z,24.53
2018-04-13T14:32:25.551Z,24.19
2018-04-13T14:33:25.606Z,24.08
2018-04-13T14:34:25.693Z,23.65
2018-04-13T14:35:25.767Z,23.24
2018-04-13T14:36:25.795Z,23.08
2018-04-13T14:37:25.857Z,23.17
2018-04-13T14:38:25.923Z,23.39
2018-04-13T14:39:25.992Z,23.64
2018-04-13T14:40:26.072Z,23.79
2018-04-13T14:41:26.107Z,23.89
2018-04-13T14:42:26.170Z,24.22
2018-04-13T14:43:26.234Z,24.39
2018-04-13T14:44:26.296Z,24.64
2018-04-13T14:45:26.382Z,24.35
2018-04-13T14:46:26.421Z,24.26
2018-04-13T14:47:26.486Z,23.80
2018-04-13T14:48:26.548Z,23.83
2018-04-13T14:49:26.609Z,23.71
2018-04-13T14:50:26.695Z,23.76
2018-04-13T14:51:26.737Z,24.01
2018-04-13T14:52:26.803Z,23.85
2018-04-13T14:53:26.864Z,23.89
2018-04-13T14:54:26.927Z,23.50
2018-04-13T14:55:27.010Z,23.77
2018-04-13T14:56:27.054Z,23.72
2018-04-13T14:57:27.141Z,23.97
2018-04-13T14:58:27.179Z,23.57
2018-04-13T14:59:27.242Z,23.65
2018-04-13T15:00:27.304Z,23.24
2018-04-13T15:01:27.365Z,23.24
2018-04-13T15:02:27.452Z,23.40
2018-04-13T15:03:27.502Z,23.26
2018-04-13T15:04:27.556Z,23.52
2018-04-13T15:05:27.619Z,23.77
2018-04-13T15:06:27.688Z,23.80
2018-04-13T15:07:27.778Z,24.14
2018-04-13T15:08:27.804Z,24.41
2018-04-13T15:09:27.871Z,24.77
2018-04-13T15:10:27.930Z,24.88
2018-04-13T15:11:27.996Z,25.20
2018-04-13T15:12:28.079Z,25.16
2018-04-13T15:13:28.145Z,24.77
2018-04-13T15:14:28.185Z,24.87
2018-04-13T15:15:28.250Z,25.17
2018-04-13T15:16:28.313Z,25.01
2018-04-13T15:17:28.373Z,25.13
2018-04-13T15:18:28.463Z,25.39
2018-04-13T15:19:28.528Z,24.76
2018-04-13T15:20:28.563Z,24.79
2018-04-13T15:21:28.627Z,24.87
2018-04-13T15:22:28.693Z,24.88
2018-04-13T15:23:28.756Z,25.01
2018-04-13T15:24:28.861Z,24.53
2018-04-13T15:25:28.883Z,23.98
2018-04-13T15:26:28.948Z,23.87
2018-04-13T15:27:29.011Z,23.94
2018-04-13T15:28:29.078Z,24.08
2018-04-13T15:29:29.164Z,24.39
2018-04-13T15:30:29.204Z,24.45
2018-04-13T15:31:29.270Z,24.56
2018-04-13T15:32:29.332Z,24.32
2018-04-13T15:33:29.397Z,24.47
2018-04-13T15:34:29.483Z,24.63
2018-04-13T15:35:29.549Z,24.85
2018-04-13T15:36:29.595Z,24.76
2018-04-13T15:37:29.653Z,24.47
2018-04-13T15:38:29.717Z,24.12
2018-04-13T15:39:29.781Z,24.27
2018-04-13T15:40:29.887Z,24.19
2018-04-13T15:41:29.908Z,24.45
2018-04-13T15:42:29.972Z,24.13
2018-04-13T15:43:30.040Z,24.50
2018-04-13T15:44:30.103Z,24.41
2018-04-13T15:45:30.190Z,24.01
2018-04-13T15:46:30.263Z,24.10
2018-04-13T15:47:30.294Z,24.16
2018-04-13T15:48:30.362Z,23.79
2018-04-13T15:49:30.420Z,23.92
2018-04-13T15:50:30.487Z,23.92
2018-04-13T15:51:30.616Z,24.20
2018-04-13T15:52:30.613Z,24.41
2018-04-13T15:53:30.676Z,24.24
2018-04-13T15:54:30.747Z,24.16
2018-04-13T15:55:30.805Z,24.24
2018-04-13T15:56:30.911Z,24.12
2018-04-13T15:57:30.931Z,24.35
2018-04-13T15:58:30.998Z,24.63
2018-04-13T15:59:31.060Z,24.73
2018-04-13T16:00:31.123Z,24.79
2018-04-13T16:01:31.213Z,25.07
2018-04-13T16:02:31.283Z,24.13
2018-04-13T16:03:31.317Z,24.14
2018-04-13T16:04:31.382Z,24.04
2018-04-13T16:05:31.444Z,23.80
2018-04-13T16:06:31.507Z,22.90
2018-04-13T16:07:31.609Z,21.94
2018-04-13T16:08:31.635Z,21.26
2018-04-13T16:09:31.699Z,21.23
2018-04-13T16:10:31.762Z,21.42
2018-04-13T16:11:31.821Z,21.26
2018-04-13T16:12:31.918Z,20.93
2018-04-13T16:13:31.946Z,20.74
2018-04-13T16:14:32.007Z,20.83
2018-04-13T16:15:32.072Z,20.56
2018-04-13T16:16:32.127Z,20.47
2018-04-13T16:17:32.209Z,20.38
2018-04-13T16:18:32.270Z,19.84
2018-04-13T16:19:32.302Z,19.69
2018-04-13T16:20:32.367Z,19.61
2018-04-13T16:21:32.417Z,19.48
2018-04-13T16:22:32.478Z,19.47
2018-04-13T16:23:32.562Z,19.46
2018-04-13T16:24:32.591Z,19.40
2018-04-13T16:25:32.648Z,19.42
2018-04-13T16:26:32.714Z,19.33
2018-04-13T16:27:32.760Z,19.21
2018-04-13T16:28:32.845Z,19.15
2018-04-13T16:29:32.872Z,18.98
2018-04-13T16:30:32.923Z,18.91
2018-04-13T16:31:32.976Z,18.97
2018-04-13T16:32:33.035Z,18.97
2018-04-13T16:33:33.129Z,18.84
2018-04-13T16:34:33.139Z,18.82
2018-04-13T16:35:33.197Z,18.79
2018-04-13T16:36:33.252Z,18.86
2018-04-13T16:37:33.303Z,18.79
2018-04-13T16:38:33.380Z,18.74
2018-04-13T16:39:33.410Z,18.67
2018-04-13T16:40:33.488Z,18.76
2018-04-13T16:41:33.517Z,18.79
2018-04-13T16:42:33.570Z,18.67
2018-04-13T16:43:33.621Z,18.70
2018-04-13T16:44:33.674Z,18.64
2018-04-13T16:45:33.755Z,18.67
2018-04-13T16:46:33.780Z,18.61
2018-04-13T16:47:33.834Z,18.43
2018-04-13T16:48:33.884Z,18.36
2018-04-13T16:49:33.975Z,18.31
2018-04-13T16:50:34.037Z,18.18
2018-04-13T16:51:34.040Z,18.31
2018-04-13T16:52:34.100Z,18.31
2018-04-13T16:53:34.143Z,18.37
2018-04-13T16:54:34.222Z,18.50
2018-04-13T16:55:34.254Z,18.42
2018-04-13T16:56:34.329Z,18.43
2018-04-13T16:57:34.352Z,18.44
2018-04-13T16:58:34.406Z,18.43
2018-04-13T16:59:34.457Z,18.47
2018-04-13T17:00:34.511Z,18.43
2018-04-13T17:01:34.582Z,18.50
2018-04-13T17:02:34.610Z,18.46
2018-04-13T17:03:34.666Z,18.34
2018-04-13T17:04:34.718Z,18.29
2018-04-13T17:05:34.767Z,18.17
2018-04-13T17:06:34.852Z,18.07
2018-04-13T17:07:34.872Z,17.99
2018-04-13T17:08:34.922Z,17.88
2018-04-13T17:09:34.971Z,17.89
2018-04-13T17:10:35.024Z,17.85
2018-04-13T17:11:35.101Z,17.79
2018-04-13T17:12:35.151Z,17.78
2018-04-13T17:13:35.180Z,17.70
2018-04-13T17:14:35.232Z,17.74
2018-04-13T17:15:35.282Z,17.71
2018-04-13T17:16:35.372Z,17.67
2018-04-13T17:17:35.384Z,16.55
2018-04-13T17:18:35.436Z,16.06
2018-04-13T17:19:35.491Z,15.52
2018-04-13T17:20:35.540Z,15.35
2018-04-13T17:21:35.615Z,15.28
2018-04-13T17:22:35.662Z,15.31
2018-04-13T17:23:35.692Z,15.41
2018-04-13T17:24:35.743Z,15.35
2018-04-13T17:25:35.793Z,15.33
2018-04-13T17:26:35.847Z,15.38
2018-04-13T17:27:35.922Z,15.38
2018-04-13T17:28:35.975Z,15.45
2018-04-13T17:29:35.995Z,15.42
2018-04-13T17:30:36.046Z,15.39
2018-04-13T17:31:36.098Z,15.35
2018-04-13T17:32:36.174Z,15.31
2018-04-13T17:33:36.232Z,15.33
2018-04-13T17:34:36.271Z,15.41
2018-04-13T17:35:36.303Z,15.48
2018-04-13T17:36:36.351Z,15.45
2018-04-13T17:37:36.404Z,15.51
2018-04-13T17:38:36.484Z,15.49
2018-04-13T17:39:36.504Z,15.46
2018-04-13T17:40:36.552Z,15.42
2018-04-13T17:41:36.603Z,15.38
2018-04-13T17:42:36.651Z,15.28
2018-04-13T17:43:36.727Z,15.24
2018-04-13T17:44:36.755Z,15.09
2018-04-13T17:45:36.834Z,14.99
2018-04-13T17:46:36.852Z,14.99
2018-04-13T17:47:36.902Z,14.90
2018-04-13T17:48:36.953Z,14.91
2018-04-13T17:49:37.035Z,14.87
2018-04-13T17:50:37.053Z,14.78
2018-04-13T17:51:37.104Z,14.72
2018-04-13T17:52:37.153Z,14.80
2018-04-13T17:53:37.207Z,14.75
2018-04-13T17:54:37.280Z,14.72
2018-04-13T17:55:37.304Z,14.57
2018-04-13T17:56:37.380Z,14.50
2018-04-13T17:57:37.404Z,14.39
2018-04-13T17:58:37.457Z,14.24
2018-04-13T17:59:37.504Z,14.16
2018-04-13T18:00:37.580Z,14.17
2018-04-13T18:01:37.607Z,14.07
2018-04-13T18:02:37.653Z,14.01
2018-04-13T18:03:37.703Z,14.16
2018-04-13T18:04:37.752Z,14.20
2018-04-13T18:05:37.826Z,14.34
2018-04-13T18:06:37.859Z,14.31
2018-04-13T18:07:37.899Z,14.29
2018-04-13T18:08:37.951Z,14.28
2018-04-13T18:09:38.001Z,14.24
2018-04-13T18:10:38.070Z,14.25
2018-04-13T18:11:38.100Z,14.20
2018-04-13T18:12:38.177Z,14.10
2018-04-13T18:13:38.194Z,14.04
2018-04-13T18:14:38.248Z,13.95
2018-04-13T18:15:38.330Z,13.88
2018-04-13T18:16:38.347Z,13.88
2018-04-13T18:17:38.393Z,13.91
2018-04-13T18:18:38.442Z,13.96
2018-04-13T18:19:38.493Z,13.99
2018-04-13T18:20:38.572Z,14.09
2018-04-13T18:21:40.267Z,13.96
2018-04-13T18:22:38.643Z,13.98
2018-04-13T18:23:38.689Z,13.87
2018-04-13T18:24:38.742Z,13.84
2018-04-13T18:25:38.820Z,13.81
2018-04-13T18:26:39.791Z,13.83
2018-04-13T18:27:38.889Z,13.87
2018-04-13T18:28:38.941Z,13.77
2018-04-13T18:29:38.986Z,13.76
2018-04-13T18:30:39.075Z,13.65
2018-04-13T18:31:39.083Z,13.58
2018-04-13T18:32:39.136Z,13.59
2018-04-13T18:33:39.181Z,13.70
2018-04-13T18:34:39.248Z,13.59
2018-04-13T18:35:39.305Z,13.67
2018-04-13T18:36:39.332Z,13.71
2018-04-13T18:37:39.377Z,13.76
2018-04-13T18:38:39.474Z,13.77
2018-04-13T18:39:39.478Z,13.71
2018-04-13T18:40:39.526Z,13.89
2018-04-13T18:41:39.576Z,13.79
2018-04-13T18:42:39.627Z,13.67
2018-04-13T18:43:39.704Z,13.73
2018-04-13T18:44:39.721Z,13.65
2018-04-13T18:45:39.772Z,13.67
2018-04-13T18:46:39.819Z,13.70
2018-04-13T18:47:39.870Z,13.69
2018-04-13T18:48:39.942Z,13.65
2018-04-13T18:49:39.971Z,13.70
2018-04-13T18:50:40.014Z,13.69
2018-04-13T18:51:40.095Z,13.76
2018-04-13T18:52:40.112Z,13.81
2018-04-13T18:53:40.161Z,13.71
2018-04-13T18:54:40.212Z,13.73
2018-04-13T18:55:40.260Z,13.69
2018-04-13T18:56:40.334Z,13.69
2018-04-13T18:57:40.359Z,13.71
2018-04-13T18:58:40.407Z,13.56
2018-04-13T18:59:40.456Z,13.58
2018-04-13T19:00:40.505Z,13.59
2018-04-13T19:01:40.595Z,13.62
2018-04-13T19:02:40.602Z,13.77
2018-04-13T19:03:41.568Z,13.77
2018-04-13T19:04:40.701Z,13.76
2018-04-13T19:05:40.752Z,13.70
2018-04-13T19:06:40.826Z,13.69
2018-04-13T19:07:40.856Z,13.58
2018-04-13T19:08:40.909Z,13.61
2018-04-13T19:09:40.946Z,13.55
2018-04-13T19:10:40.996Z,13.58
2018-04-13T19:11:41.069Z,13.59
2018-04-13T19:12:41.136Z,13.56
2018-04-13T19:13:41.140Z,13.61
2018-04-13T19:14:41.200Z,13.62
2018-04-13T19:15:41.245Z,13.58
2018-04-13T19:16:41.318Z,13.62
2018-04-13T19:17:41.338Z,13.55
2018-04-13T19:18:41.388Z,13.56
2018-04-13T19:19:41.439Z,13.55
2018-04-13T19:20:41.484Z,13.47
2018-04-13T19:21:41.565Z,13.33
2018-04-13T19:22:41.605Z,13.24
2018-04-13T19:23:41.641Z,13.20
2018-04-13T19:24:41.680Z,13.24
2018-04-13T19:25:41.729Z,13.22
2018-04-13T19:26:41.808Z,13.27
2018-04-13T19:27:41.856Z,13.17
2018-04-13T19:28:41.877Z,13.06
2018-04-13T19:29:41.924Z,13.07
2018-04-13T19:30:41.975Z,13.00
2018-04-13T19:31:42.034Z,13.04
2018-04-13T19:32:42.110Z,12.95
2018-04-13T19:33:42.119Z,12.89
2018-04-13T19:34:42.172Z,12.99
2018-04-13T19:35:42.222Z,12.99
2018-04-13T19:36:42.270Z,13.00
2018-04-13T19:37:42.341Z,12.95
2018-04-13T19:38:42.423Z,12.95
2018-04-13T19:39:42.416Z,12.96
2018-04-13T19:40:42.466Z,12.85
2018-04-13T19:41:42.511Z,12.82
2018-04-13T19:42:42.584Z,12.82
2018-04-13T19:43:42.613Z,12.84
2018-04-13T19:44:42.685Z,12.67
2018-04-13T19:45:42.708Z,12.66
2018-04-13T19:46:42.758Z,12.79
2018-04-13T19:47:42.803Z,12.70
2018-04-13T19:48:42.880Z,12.69
2018-04-13T19:49:42.927Z,12.64
2018-04-13T19:50:42.948Z,12.63
2018-04-13T19:51:43.007Z,12.75
2018-04-13T19:52:43.061Z,12.75
2018-04-13T19:53:43.130Z,12.74
2018-04-13T19:54:43.159Z,12.63
2018-04-13T19:55:43.192Z,12.60
2018-04-13T19:56:43.243Z,12.66
2018-04-13T19:57:43.301Z,12.71
2018-04-13T19:58:43.362Z,12.60
2018-04-13T19:59:43.414Z,12.69
2018-04-13T20:00:43.438Z,12.59
2018-04-13T20:01:43.486Z,12.64
2018-04-13T20:02:43.531Z,12.70
2018-04-13T20:03:43.643Z,12.54
2018-04-13T20:04:43.672Z,12.59
2018-04-13T20:05:43.684Z,12.48
2018-04-13T20:06:43.728Z,12.49
2018-04-13T20:07:43.777Z,12.39
2018-04-13T20:08:43.826Z,12.49
2018-04-13T20:09:43.894Z,12.33
2018-04-13T20:10:43.945Z,12.46
2018-04-13T20:11:43.969Z,12.29